Time,TemperatureF,DewpointF,PressureIn,WindDirection,WindDirectionDegrees,WindSpeedMPH,WindSpeedGustMPH,Humidity,HourlyPrecipIn,Conditions,Clouds,dailyrainin,SoftwareType,DateUTC
2013-04-10 00:02:00,50.0,34.0,29.87,NE,51,0.0,-999.0,55,-99.99,,,-99.99,,2013-04-10 07:02:00,
2013-04-10 00:11:00,50.0,34.0,29.87,NE,51,0.0,-999.0,55,-99.99,,,-99.99,,2013-04-10 07:11:00,
2013-04-10 00:22:00,50.0,35.0,29.86,NE,51,0.0,-999.0,57,-99.99,,,-99.99,,2013-04-10 07:22:00,
2013-04-10 00:32:00,51.0,37.0,29.87,NE,51,0.0,-999.0,58,-99.99,,,-99.99,,2013-04-10 07:32:00,
2013-04-10 00:42:00,51.0,37.0,29.87,NE,51,0.0,-999.0,58,-99.99,,,-99.99,,2013-04-10 07:42:00,
2013-04-10 00:52:00,51.0,35.0,29.87,NE,51,0.0,-999.0,55,-99.99,,,-99.99,,2013-04-10 07:52:00,
2013-04-10 01:01:00,51.0,35.0,29.88,NE,51,0.0,-999.0,55,-99.99,,,-99.99,,2013-04-10 08:01:00,
2013-04-10 01:11:00,51.0,35.0,29.88,NE,51,0.0,-999.0,55,-99.99,,,-99.99,,2013-04-10 08:11:00,
2013-04-10 01:21:00,51.0,36.0,29.88,NE,51,0.0,-999.0,56,-99.99,,,-99.99,,2013-04-10 08:21:00,
2013-04-10 01:31:00,51.0,34.0,29.88,NE,51,0.0,-999.0,51,-99.99,,,-99.99,,2013-04-10 08:31:00,
2013-04-10 01:42:00,51.0,34.0,29.88,NE,51,0.0,-999.0,51,-99.99,,,-99.99,,2013-04-10 08:42:00,
2013-04-10 01:52:00,51.0,32.0,29.88,NE,51,0.0,-999.0,48,-99.99,,,-99.99,,2013-04-10 08:52:00,
2013-04-10 02:01:00,51.0,31.0,29.88,NE,51,0.0,-999.0,46,-99.99,,,-99.99,,2013-04-10 09:01:00,
2013-04-10 02:12:00,51.0,31.0,29.88,NE,51,0.0,-999.0,46,-99.99,,,-99.99,,2013-04-10 09:12:00,
2013-04-10 02:22:00,51.0,31.0,29.88,NE,51,0.0,-999.0,46,-99.99,,,-99.99,,2013-04-10 09:22:00,
2013-04-10 02:32:00,51.0,29.0,29.87,NE,51,0.0,-999.0,43,-99.99,,,-99.99,,2013-04-10 09:32:00,
2013-04-10 02:42:00,51.0,29.0,29.87,NE,51,0.0,-999.0,43,-99.99,,,-99.99,,2013-04-10 09:42:00,
2013-04-10 02:53:00,51.0,29.0,29.87,NE,51,0.0,-999.0,42,-99.99,,,-99.99,,2013-04-10 09:53:00,
2013-04-10 03:02:00,51.0,28.0,29.87,NE,51,0.0,-999.0,40,-99.99,,,-99.99,,2013-04-10 10:02:00,
2013-04-10 03:12:00,53.0,31.0,29.88,ESE,104,0.0,-999.0,43,-99.99,,,-99.99,,2013-04-10 10:12:00,
2013-04-10 03:23:00,53.0,31.0,29.88,ESE,104,0.0,-999.0,43,-99.99,,,-99.99,,2013-04-10 10:23:00,
2013-04-10 03:33:00,54.0,32.0,29.88,ESE,104,0.0,-999.0,43,-99.99,,,-99.99,,2013-04-10 10:33:00,
2013-04-10 03:42:00,54.0,32.0,29.88,ESE,104,0.0,-999.0,43,-99.99,,,-99.99,,2013-04-10 10:42:00,
2013-04-10 03:52:00,53.0,31.0,29.88,ESE,104,0.0,-999.0,42,-99.99,,,-99.99,,2013-04-10 10:52:00,
2013-04-10 04:02:00,52.0,30.0,29.88,ESE,104,0.0,-999.0,43,-99.99,,,-99.99,,2013-04-10 11:02:00,
2013-04-10 04:12:00,52.0,30.0,29.88,ESE,104,0.0,-999.0,43,-99.99,,,-99.99,,2013-04-10 11:12:00,
2013-04-10 04:22:00,52.0,30.0,29.88,ESE,104,0.0,-999.0,43,-99.99,,,-99.99,,2013-04-10 11:22:00,
2013-04-10 04:31:00,51.0,29.0,29.89,ESE,104,0.0,-999.0,43,-99.99,,,-99.99,,2013-04-10 11:31:00,
2013-04-10 04:42:00,51.0,29.0,29.89,ESE,104,0.0,-999.0,43,-99.99,,,-99.99,,2013-04-10 11:42:00,
2013-04-10 04:52:00,50.0,29.0,29.89,ESE,104,0.0,-999.0,44,-99.99,,,-99.99,,2013-04-10 11:52:00,
2013-04-10 05:02:00,50.0,29.0,29.90,ESE,104,0.0,-999.0,44,-99.99,,,-99.99,,2013-04-10 12:02:00,
2013-04-10 05:12:00,50.0,29.0,29.90,ESE,104,0.0,-999.0,44,-99.99,,,-99.99,,2013-04-10 12:12:00,
2013-04-10 05:22:00,49.0,29.0,29.91,ESE,104,0.0,-999.0,46,-99.99,,,-99.99,,2013-04-10 12:22:00,
2013-04-10 05:42:00,49.0,29.0,29.91,ESE,104,0.0,-999.0,45,-99.99,,,-99.99,,2013-04-10 12:42:00,
2013-04-10 05:52:00,50.0,27.0,29.91,ESE,104,0.0,-999.0,41,-99.99,,,-99.99,,2013-04-10 12:52:00,
2013-04-10 06:01:00,50.0,25.0,29.91,ESE,103,0.0,-999.0,38,-99.99,,,-99.99,,2013-04-10 13:01:00,
2013-04-10 06:11:00,50.0,25.0,29.91,ESE,103,0.0,-999.0,38,-99.99,,,-99.99,,2013-04-10 13:11:00,
2013-04-10 06:22:00,51.0,25.0,29.92,ESE,103,0.0,-999.0,36,-99.99,,,-99.99,,2013-04-10 13:22:00,
2013-04-10 06:32:00,52.0,25.0,29.92,ESE,103,0.0,-999.0,34,-99.99,,,-99.99,,2013-04-10 13:32:00,
2013-04-10 06:42:00,52.0,25.0,29.92,ESE,103,0.0,-999.0,34,-99.99,,,-99.99,,2013-04-10 13:42:00,
2013-04-10 06:53:00,52.0,25.0,29.93,ESE,103,0.0,-999.0,34,-99.99,,,-99.99,,2013-04-10 13:53:00,
2013-04-10 07:01:00,52.0,28.0,29.95,ESE,113,0.0,-999.0,39,-99.99,,,-99.99,,2013-04-10 14:01:00,
2013-04-10 07:11:00,52.0,28.0,29.95,ESE,113,0.0,-999.0,39,-99.99,,,-99.99,,2013-04-10 14:11:00,
2013-04-10 07:22:00,51.0,28.0,29.95,ESE,113,0.0,-999.0,40,-99.99,,,-99.99,,2013-04-10 14:22:00,
2013-04-10 07:32:00,50.0,29.0,29.95,ESE,113,0.0,-999.0,44,-99.99,,,-99.99,,2013-04-10 14:32:00,
2013-04-10 07:42:00,50.0,28.0,29.96,ESE,113,0.0,-999.0,43,-99.99,,,-99.99,,2013-04-10 14:42:00,
2013-04-10 07:52:00,50.0,28.0,29.96,ESE,113,0.0,-999.0,43,-99.99,,,-99.99,,2013-04-10 14:52:00,
2013-04-10 08:02:00,50.0,28.0,29.97,ESE,113,0.0,-999.0,42,-99.99,,,-99.99,,2013-04-10 15:02:00,
2013-04-10 08:11:00,50.0,28.0,29.97,ESE,113,0.0,-999.0,42,-99.99,,,-99.99,,2013-04-10 15:11:00,
2013-04-10 08:21:00,51.0,31.0,29.97,ESE,113,0.0,-999.0,46,-99.99,,,-99.99,,2013-04-10 15:21:00,
2013-04-10 08:32:00,53.0,32.0,29.98,ESE,113,0.0,-999.0,44,-99.99,,,-99.99,,2013-04-10 15:32:00,
2013-04-10 08:42:00,53.0,32.0,29.98,ESE,113,0.0,-999.0,44,-99.99,,,-99.99,,2013-04-10 15:42:00,
2013-04-10 08:52:00,55.0,34.0,29.97,ESE,113,0.0,-999.0,45,-99.99,,,-99.99,,2013-04-10 15:52:00,
2013-04-10 09:02:00,56.0,34.0,29.97,ESE,113,0.0,-999.0,43,-99.99,,,-99.99,,2013-04-10 16:02:00,
2013-04-10 09:12:00,56.0,34.0,29.97,ESE,113,0.0,-999.0,43,-99.99,,,-99.99,,2013-04-10 16:12:00,
2013-04-10 09:22:00,58.0,36.0,29.97,ESE,113,0.0,-999.0,43,-99.99,,,-99.99,,2013-04-10 16:22:00,
2013-04-10 09:32:00,61.0,32.0,29.96,ESE,113,0.0,-999.0,33,-99.99,,,-99.99,,2013-04-10 16:32:00,
2013-04-10 09:42:00,61.0,32.0,29.96,ESE,113,0.0,-999.0,33,-99.99,,,-99.99,,2013-04-10 16:42:00,
2013-04-10 09:52:00,63.0,33.0,29.97,ESE,113,0.0,-999.0,33,-99.99,,,-99.99,,2013-04-10 16:52:00,
2013-04-10 10:02:00,66.0,36.0,29.97,ESE,113,0.0,-999.0,33,-99.99,,,-99.99,,2013-04-10 17:02:00,
2013-04-10 10:12:00,68.0,31.0,29.97,East,89,0.0,-999.0,25,-99.99,,,-99.99,,2013-04-10 17:12:00,
2013-04-10 10:22:00,68.0,31.0,29.97,East,89,0.0,-999.0,25,-99.99,,,-99.99,,2013-04-10 17:22:00,
2013-04-10 10:32:00,72.0,30.0,29.96,ENE,69,0.0,-999.0,21,-99.99,,,-99.99,,2013-04-10 17:32:00,
2013-04-10 10:42:00,72.0,30.0,29.96,ENE,69,0.0,-999.0,21,-99.99,,,-99.99,,2013-04-10 17:42:00,
2013-04-10 10:52:00,76.0,32.0,29.96,ENE,76,0.0,-999.0,20,-99.99,,,-99.99,,2013-04-10 17:52:00,
2013-04-10 11:02:00,78.0,31.0,29.96,ENE,68,0.0,-999.0,18,-99.99,,,-99.99,,2013-04-10 18:02:00,
2013-04-10 11:22:00,78.0,31.0,29.96,NE,44,1.0,-999.0,18,-99.99,,,-99.99,,2013-04-10 18:22:00,
2013-04-10 11:32:00,80.0,33.0,29.96,ESE,102,0.0,-999.0,18,-99.99,,,-99.99,,2013-04-10 18:32:00,
2013-04-10 11:52:00,80.0,31.0,29.95,East,93,1.0,-999.0,17,-99.99,,,-99.99,,2013-04-10 18:52:00,
2013-04-10 12:02:00,80.0,30.0,29.94,ESE,107,1.0,-999.0,16,-99.99,,,-99.99,,2013-04-10 19:02:00,
2013-04-10 12:32:00,80.0,30.0,29.93,ESE,109,1.0,-999.0,16,-99.99,,,-99.99,,2013-04-10 19:32:00,
2013-04-10 12:52:00,81.0,29.0,29.93,East,100,1.0,-999.0,15,-99.99,,,-99.99,,2013-04-10 19:52:00,
2013-04-10 13:02:00,82.0,33.0,29.92,NE,53,0.0,-999.0,17,-99.99,,,-99.99,,2013-04-10 20:02:00,
2013-04-10 13:11:00,82.0,33.0,29.91,ENE,76,2.0,-999.0,17,-99.99,,,-99.99,,2013-04-10 20:11:00,
2013-04-10 13:32:00,82.0,33.0,29.91,ENE,69,1.0,-999.0,17,-99.99,,,-99.99,,2013-04-10 20:32:00,
2013-04-10 13:42:00,82.0,33.0,29.91,East,88,1.0,-999.0,17,-99.99,,,-99.99,,2013-04-10 20:42:00,
2013-04-10 14:02:00,82.0,33.0,29.90,ENE,73,2.0,-999.0,17,-99.99,,,-99.99,,2013-04-10 21:02:00,
2013-04-10 14:22:00,82.0,34.0,29.90,East,93,2.0,-999.0,18,-99.99,,,-99.99,,2013-04-10 21:22:00,
2013-04-10 14:32:00,83.0,34.0,29.89,ESE,113,2.0,-999.0,17,-99.99,,,-99.99,,2013-04-10 21:32:00,
2013-04-10 14:53:00,82.0,33.0,29.89,East,87,3.0,-999.0,17,-99.99,,,-99.99,,2013-04-10 21:53:00,
2013-04-10 15:02:00,82.0,34.0,29.88,ENE,69,1.0,-999.0,18,-99.99,,,-99.99,,2013-04-10 22:02:00,
2013-04-10 15:12:00,82.0,34.0,29.88,East,89,2.0,-999.0,18,-99.99,,,-99.99,,2013-04-10 22:12:00,
2013-04-10 15:32:00,82.0,34.0,29.87,ESE,107,1.0,-999.0,18,-99.99,,,-99.99,,2013-04-10 22:32:00,
2013-04-10 15:52:00,83.0,34.0,29.86,ESE,117,1.0,-999.0,17,-99.99,,,-99.99,,2013-04-10 22:52:00,
2013-04-10 16:02:00,82.0,33.0,29.85,ESE,112,2.0,-999.0,17,-99.99,,,-99.99,,2013-04-10 23:02:00,
2013-04-10 16:12:00,82.0,33.0,29.85,ESE,112,2.0,-999.0,17,-99.99,,,-99.99,,2013-04-10 23:12:00,
2013-04-10 16:22:00,82.0,34.0,29.85,ENE,71,1.0,-999.0,18,-99.99,,,-99.99,,2013-04-10 23:22:00,
2013-04-10 16:32:00,82.0,34.0,29.84,East,90,1.0,-999.0,18,-99.99,,,-99.99,,2013-04-10 23:32:00,
2013-04-10 16:52:00,82.0,33.0,29.84,ENE,78,1.0,-999.0,17,-99.99,,,-99.99,,2013-04-10 23:52:00,
2013-04-10 17:01:00,83.0,34.0,29.83,ESE,102,1.0,-999.0,17,-99.99,,,-99.99,,2013-04-11 00:01:00,
2013-04-10 17:11:00,83.0,34.0,29.83,ESE,102,1.0,-999.0,17,-99.99,,,-99.99,,2013-04-11 00:11:00,
2013-04-10 17:31:00,83.0,34.0,29.83,ESE,112,1.0,-999.0,17,-99.99,,,-99.99,,2013-04-11 00:31:00,
2013-04-10 17:42:00,82.0,33.0,29.83,SE,125,2.0,-999.0,17,-99.99,,,-99.99,,2013-04-11 00:42:00,
2013-04-10 17:52:00,82.0,33.0,29.83,SE,125,2.0,-999.0,17,-99.99,,,-99.99,,2013-04-11 00:52:00,
2013-04-10 18:01:00,82.0,36.0,29.83,ENE,67,0.0,-999.0,19,-99.99,,,-99.99,,2013-04-11 01:01:00,
2013-04-10 18:12:00,82.0,37.0,29.83,NE,47,0.0,-999.0,20,-99.99,,,-99.99,,2013-04-11 01:12:00,
2013-04-10 18:32:00,80.0,38.0,29.83,ENE,63,0.0,-999.0,22,-99.99,,,-99.99,,2013-04-11 01:32:00,
2013-04-10 18:42:00,80.0,38.0,29.83,ENE,63,0.0,-999.0,22,-99.99,,,-99.99,,2013-04-11 01:42:00,
2013-04-10 19:02:00,79.0,39.0,29.83,West,279,0.0,-999.0,24,-99.99,,,-99.99,,2013-04-11 02:02:00,
2013-04-10 19:12:00,78.0,40.0,29.84,NNW,329,0.0,-999.0,26,-99.99,,,-99.99,,2013-04-11 02:12:00,
2013-04-10 19:32:00,76.0,41.0,29.84,NNW,329,0.0,-999.0,28,-99.99,,,-99.99,,2013-04-11 02:32:00,
2013-04-10 19:41:00,76.0,41.0,29.84,NNW,329,0.0,-999.0,28,-99.99,,,-99.99,,2013-04-11 02:41:00,
2013-04-10 19:52:00,73.0,39.0,29.84,NNW,329,0.0,-999.0,29,-99.99,,,-99.99,,2013-04-11 02:52:00,
2013-04-10 20:01:00,71.0,38.0,29.84,NNW,329,0.0,-999.0,30,-99.99,,,-99.99,,2013-04-11 03:01:00,
2013-04-10 20:12:00,69.0,38.0,29.84,NNW,329,0.0,-999.0,32,-99.99,,,-99.99,,2013-04-11 03:12:00,
2013-04-10 20:22:00,69.0,38.0,29.84,NNW,329,0.0,-999.0,32,-99.99,,,-99.99,,2013-04-11 03:22:00,
2013-04-10 20:33:00,67.0,37.0,29.85,NNW,329,0.0,-999.0,33,-99.99,,,-99.99,,2013-04-11 03:33:00,
2013-04-10 20:42:00,67.0,37.0,29.85,NNW,329,0.0,-999.0,33,-99.99,,,-99.99,,2013-04-11 03:42:00,
2013-04-10 20:53:00,67.0,37.0,29.85,NNW,329,0.0,-999.0,33,-99.99,,,-99.99,,2013-04-11 03:53:00,
2013-04-10 21:03:00,65.0,36.0,29.85,WNW,300,0.0,-999.0,34,-99.99,,,-99.99,,2013-04-11 04:03:00,
2013-04-10 21:12:00,64.0,34.0,29.85,WNW,289,0.0,-999.0,33,-99.99,,,-99.99,,2013-04-11 04:12:00,
2013-04-10 21:22:00,64.0,34.0,29.85,WNW,289,0.0,-999.0,33,-99.99,,,-99.99,,2013-04-11 04:22:00,
2013-04-10 21:33:00,64.0,35.0,29.85,West,261,0.0,-999.0,34,-99.99,,,-99.99,,2013-04-11 04:33:00,
2013-04-10 21:42:00,64.0,35.0,29.85,West,261,0.0,-999.0,34,-99.99,,,-99.99,,2013-04-11 04:42:00,
2013-04-10 21:52:00,64.0,35.0,29.85,West,261,0.0,-999.0,34,-99.99,,,-99.99,,2013-04-11 04:52:00,
2013-04-10 22:02:00,63.0,36.0,29.86,West,261,0.0,-999.0,36,-99.99,,,-99.99,,2013-04-11 05:02:00,
2013-04-10 22:12:00,63.0,36.0,29.86,West,261,0.0,-999.0,36,-99.99,,,-99.99,,2013-04-11 05:12:00,
2013-04-10 22:22:00,62.0,37.0,29.86,West,261,0.0,-999.0,39,-99.99,,,-99.99,,2013-04-11 05:22:00,
2013-04-10 22:32:00,60.0,37.0,29.87,West,261,0.0,-999.0,42,-99.99,,,-99.99,,2013-04-11 05:32:00,
2013-04-10 22:42:00,60.0,37.0,29.87,West,261,0.0,-999.0,42,-99.99,,,-99.99,,2013-04-11 05:42:00,
2013-04-10 22:52:00,59.0,36.0,29.86,West,261,0.0,-999.0,42,-99.99,,,-99.99,,2013-04-11 05:52:00,
2013-04-10 23:02:00,58.0,36.0,29.85,West,261,0.0,-999.0,43,-99.99,,,-99.99,,2013-04-11 06:02:00,
2013-04-10 23:12:00,58.0,36.0,29.85,West,261,0.0,-999.0,43,-99.99,,,-99.99,,2013-04-11 06:12:00,
2013-04-10 23:21:00,57.0,35.0,29.85,West,261,0.0,-999.0,44,-99.99,,,-99.99,,2013-04-11 06:21:00,
2013-04-10 23:32:00,56.0,34.0,29.85,West,261,0.0,-999.0,43,-99.99,,,-99.99,,2013-04-11 06:32:00,
2013-04-10 23:42:00,56.0,34.0,29.85,West,261,0.0,-999.0,43,-99.99,,,-99.99,,2013-04-11 06:42:00,
2013-04-10 23:52:00,56.0,34.0,29.84,West,261,0.0,-999.0,43,-99.99,,,-99.99,,2013-04-11 06:52:00,